createdAt,value
2019-02-09T00:00:01.439Z,81.80
2019-02-09T00:02:28.029Z,81.80
2019-02-09T00:04:54.662Z,81.70
2019-02-09T00:07:21.304Z,81.60
2019-02-09T00:09:47.940Z,81.70
2019-02-09T00:12:14.525Z,81.80
2019-02-09T00:14:41.160Z,81.90
2019-02-09T00:17:07.750Z,82.10
2019-02-09T00:19:34.442Z,82.20
2019-02-09T00:22:01.079Z,82.10
2019-02-09T00:24:27.718Z,82.00
2019-02-09T00:26:54.353Z,82.20
2019-02-09T00:29:20.942Z,82.00
2019-02-09T00:31:47.634Z,81.80
2019-02-09T00:34:16.247Z,81.70
2019-02-09T00:36:42.632Z,81.60
2019-02-09T00:39:09.299Z,81.40
2019-02-09T00:41:35.932Z,81.20
2019-02-09T00:44:02.562Z,81.00
2019-02-09T00:46:29.305Z,80.80
2019-02-09T00:48:55.944Z,81.00
2019-02-09T00:51:22.531Z,80.90
2019-02-09T00:53:49.165Z,80.90
2019-02-09T00:56:15.750Z,80.60
2019-02-09T00:58:42.390Z,80.30
2019-02-09T01:01:08.971Z,80.10
2019-02-09T01:03:35.606Z,80.00
2019-02-09T01:06:02.194Z,80.50
2019-02-09T01:08:28.831Z,79.50
2019-02-09T01:10:55.416Z,79.60
2019-02-09T01:13:22.047Z,78.40
2019-02-09T01:15:48.633Z,78.90
2019-02-09T01:18:15.291Z,78.70
2019-02-09T01:20:41.932Z,78.60
2019-02-09T01:23:08.523Z,78.50
2019-02-09T01:25:35.154Z,77.80
2019-02-09T01:28:02.355Z,77.80
2019-02-09T01:30:28.944Z,77.40
2019-02-09T01:32:55.533Z,77.20
2019-02-09T01:35:22.167Z,77.30
2019-02-09T01:37:48.753Z,76.90
2019-02-09T01:40:15.386Z,77.10
2019-02-09T01:42:42.085Z,76.40
2019-02-09T01:45:08.823Z,76.30
2019-02-09T01:47:35.416Z,76.20
2019-02-09T01:50:02.047Z,76.20
2019-02-09T01:52:28.631Z,75.80
2019-02-09T01:54:55.272Z,75.60
2019-02-09T01:57:21.857Z,75.30
2019-02-09T01:59:48.490Z,75.40
2019-02-09T02:02:15.072Z,75.00
2019-02-09T02:04:41.703Z,74.90
2019-02-09T02:07:08.334Z,74.60
2019-02-09T02:09:34.916Z,74.60
2019-02-09T02:12:01.636Z,74.90
2019-02-09T02:14:28.213Z,74.70
2019-02-09T02:16:54.843Z,75.20
2019-02-09T02:19:21.427Z,75.00
2019-02-09T02:21:48.058Z,74.70
2019-02-09T02:24:16.810Z,74.60
2019-02-09T02:26:42.994Z,74.90
2019-02-09T02:29:09.621Z,74.80
2019-02-09T02:31:36.265Z,74.80
2019-02-09T02:34:02.846Z,74.70
2019-02-09T02:36:29.426Z,74.70
2019-02-09T02:38:56.061Z,74.90
2019-02-09T02:41:22.694Z,74.20
2019-02-09T02:43:49.326Z,74.00
2019-02-09T02:46:15.956Z,73.10
2019-02-09T02:48:42.601Z,73.00
2019-02-09T02:51:09.178Z,72.50
2019-02-09T02:53:35.758Z,72.80
2019-02-09T02:56:02.388Z,72.60
2019-02-09T02:58:29.014Z,72.90
2019-02-09T03:00:55.600Z,73.00
2019-02-09T03:03:22.229Z,73.00
2019-02-09T03:05:48.814Z,72.70
2019-02-09T03:08:15.541Z,73.00
2019-02-09T03:10:42.122Z,72.90
2019-02-09T03:13:08.757Z,72.60
2019-02-09T03:15:35.357Z,72.70
2019-02-09T03:18:01.993Z,72.90
2019-02-09T03:20:28.699Z,73.00
2019-02-09T03:22:55.279Z,73.00
2019-02-09T03:25:21.913Z,73.00
2019-02-09T03:27:48.646Z,72.90
2019-02-09T03:30:15.232Z,73.10
2019-02-09T03:32:41.811Z,72.90
2019-02-09T03:35:08.444Z,72.80
2019-02-09T03:37:35.075Z,72.90
2019-02-09T03:40:01.664Z,73.20
2019-02-09T03:42:28.294Z,72.40
2019-02-09T03:44:54.884Z,72.10
2019-02-09T03:47:21.469Z,71.80
2019-02-09T03:49:48.101Z,71.80
2019-02-09T03:52:14.729Z,71.80
2019-02-09T03:54:41.313Z,71.00
2019-02-09T03:57:07.943Z,71.00
2019-02-09T03:59:34.526Z,70.50
2019-02-09T04:02:01.502Z,70.30
2019-02-09T04:04:28.195Z,70.00
2019-02-09T04:06:54.773Z,70.20
2019-02-09T04:09:21.360Z,70.10
2019-02-09T04:11:47.986Z,70.30
2019-02-09T04:14:16.675Z,70.10
2019-02-09T04:16:43.029Z,69.90
2019-02-09T04:19:09.609Z,70.30
2019-02-09T04:21:36.244Z,69.70
2019-02-09T04:24:02.826Z,69.50
2019-02-09T04:26:29.459Z,69.00
2019-02-09T04:28:56.039Z,68.90
2019-02-09T04:31:22.671Z,68.30
2019-02-09T04:33:49.256Z,67.90
2019-02-09T04:36:15.953Z,67.70
2019-02-09T04:38:42.585Z,67.00
2019-02-09T04:41:09.174Z,67.00
2019-02-09T04:43:35.805Z,66.20
2019-02-09T04:46:02.398Z,66.00
2019-02-09T04:48:29.026Z,66.00
2019-02-09T04:50:55.608Z,65.60
2019-02-09T04:53:22.239Z,65.20
2019-02-09T04:55:48.823Z,65.00
2019-02-09T04:58:15.401Z,64.70
2019-02-09T05:00:42.029Z,64.60
2019-02-09T05:03:08.614Z,64.30
2019-02-09T05:05:35.249Z,64.20
2019-02-09T05:08:01.878Z,64.10
2019-02-09T05:10:28.498Z,64.50
2019-02-09T05:12:55.079Z,63.80
2019-02-09T05:15:21.709Z,63.70
2019-02-09T05:17:48.389Z,63.30
2019-02-09T05:20:15.021Z,63.50
2019-02-09T05:22:41.648Z,63.40
2019-02-09T05:25:08.235Z,63.50
2019-02-09T05:27:34.860Z,62.90
2019-02-09T05:30:01.444Z,63.00
2019-02-09T05:32:28.074Z,62.90
2019-02-09T05:34:54.752Z,62.90
2019-02-09T05:37:21.384Z,63.10
2019-02-09T05:39:48.023Z,62.60
2019-02-09T05:42:14.607Z,62.60
2019-02-09T05:44:41.181Z,62.70
2019-02-09T05:47:07.817Z,62.60
2019-02-09T05:49:34.443Z,62.80
2019-02-09T05:52:01.019Z,62.60
2019-02-09T05:54:27.650Z,62.90
2019-02-09T05:56:54.290Z,62.80
2019-02-09T05:59:20.922Z,62.60
2019-02-09T06:01:47.565Z,62.80
2019-02-09T06:04:14.143Z,62.60
2019-02-09T06:06:40.780Z,62.80
2019-02-09T06:09:07.408Z,62.60
2019-02-09T06:11:34.041Z,62.50
2019-02-09T06:14:00.625Z,62.70
2019-02-09T06:16:27.257Z,62.50
2019-02-09T06:18:53.838Z,62.30
2019-02-09T06:21:20.570Z,62.20
2019-02-09T06:23:47.154Z,62.60
2019-02-09T06:26:13.857Z,62.50
2019-02-09T06:28:40.438Z,63.10
2019-02-09T06:31:07.058Z,62.70
2019-02-09T06:33:33.635Z,63.00
2019-02-09T06:36:00.266Z,62.90
2019-02-09T06:38:26.847Z,63.10
2019-02-09T06:40:53.470Z,65.00
2019-02-09T06:43:20.049Z,66.20
2019-02-09T06:45:46.678Z,66.70
2019-02-09T06:48:13.255Z,67.30
2019-02-09T06:50:39.883Z,67.40
2019-02-09T06:53:06.465Z,68.00
2019-02-09T06:55:33.106Z,68.20
2019-02-09T06:57:59.729Z,69.50
2019-02-09T07:00:26.310Z,70.20
2019-02-09T07:02:54.568Z,70.50
2019-02-09T07:05:21.351Z,70.20
2019-02-09T07:07:47.928Z,70.80
2019-02-09T07:10:14.558Z,70.50
2019-02-09T07:12:41.142Z,71.40
2019-02-09T07:15:07.769Z,72.30
2019-02-09T07:17:34.353Z,72.80
2019-02-09T07:20:01.835Z,72.80
2019-02-09T07:22:28.465Z,72.80
2019-02-09T07:24:55.094Z,72.80
2019-02-09T07:27:21.858Z,73.00
2019-02-09T07:29:48.484Z,73.00
2019-02-09T07:32:15.112Z,73.60
2019-02-09T07:34:41.739Z,73.60
2019-02-09T07:37:08.322Z,74.30
2019-02-09T07:39:34.947Z,73.80
2019-02-09T07:42:01.581Z,74.50
2019-02-09T07:44:28.163Z,75.00
2019-02-09T07:46:54.749Z,75.70
2019-02-09T07:49:21.376Z,76.60
2019-02-09T07:51:48.006Z,78.00
2019-02-09T07:54:14.585Z,78.00
2019-02-09T07:56:41.207Z,78.70
2019-02-09T07:59:07.837Z,79.60
2019-02-09T08:01:34.463Z,80.80
2019-02-09T08:04:01.051Z,79.80
2019-02-09T08:06:27.678Z,80.10
2019-02-09T08:08:54.259Z,80.40
2019-02-09T08:11:20.883Z,80.20
2019-02-09T08:13:47.463Z,80.30
2019-02-09T08:16:14.097Z,80.00
2019-02-09T08:18:40.677Z,79.80
2019-02-09T08:21:07.257Z,79.80
2019-02-09T08:23:33.885Z,79.80
2019-02-09T08:26:00.470Z,79.40
2019-02-09T08:28:27.092Z,79.60
2019-02-09T08:30:53.678Z,79.70
2019-02-09T08:33:20.308Z,80.30
2019-02-09T08:35:46.996Z,79.90
2019-02-09T08:38:13.632Z,80.00
2019-02-09T08:40:40.210Z,79.80
2019-02-09T08:43:06.837Z,80.10
2019-02-09T08:45:33.465Z,79.80
2019-02-09T08:48:00.096Z,80.10
2019-02-09T08:50:26.830Z,81.00
2019-02-09T08:52:53.403Z,82.60
2019-02-09T08:55:20.102Z,83.90
2019-02-09T08:57:46.686Z,84.40
2019-02-09T09:00:13.313Z,84.80
2019-02-09T09:02:39.891Z,84.70
2019-02-09T09:05:09.707Z,85.10
2019-02-09T09:07:34.877Z,85.60
2019-02-09T09:10:01.460Z,86.80
2019-02-09T09:12:28.103Z,87.20
2019-02-09T09:14:54.688Z,86.70
2019-02-09T09:17:21.265Z,87.80
2019-02-09T09:19:47.902Z,86.70
2019-02-09T09:22:14.477Z,85.90
2019-02-09T09:24:41.113Z,85.40
2019-02-09T09:27:07.696Z,84.70
2019-02-09T09:29:34.326Z,85.00
2019-02-09T09:32:00.907Z,84.70
2019-02-09T09:34:27.543Z,84.50
2019-02-09T09:36:54.134Z,84.50
2019-02-09T09:39:20.764Z,84.80
2019-02-09T09:41:47.341Z,84.80
2019-02-09T09:44:13.995Z,85.00
2019-02-09T09:46:40.733Z,85.00
2019-02-09T09:49:07.319Z,84.90
2019-02-09T09:51:33.903Z,83.90
2019-02-09T09:54:00.542Z,83.00
2019-02-09T09:56:27.189Z,81.80
2019-02-09T09:58:53.935Z,80.00
2019-02-09T10:01:20.566Z,79.00
2019-02-09T10:03:47.147Z,77.40
2019-02-09T10:06:13.785Z,77.30
2019-02-09T10:08:40.363Z,76.70
2019-02-09T10:11:07.004Z,75.20
2019-02-09T10:13:33.644Z,75.50
2019-02-09T10:16:00.224Z,74.80
2019-02-09T10:18:26.860Z,74.90
2019-02-09T10:20:53.486Z,73.50
2019-02-09T10:23:20.073Z,72.80
2019-02-09T10:25:46.708Z,72.30
2019-02-09T10:28:13.376Z,71.30
2019-02-09T10:30:40.013Z,71.30
2019-02-09T10:33:06.660Z,70.50
2019-02-09T10:35:33.249Z,70.00
2019-02-09T10:37:59.912Z,69.50
2019-02-09T10:40:26.552Z,69.60
2019-02-09T10:42:53.134Z,68.90
2019-02-09T10:45:19.843Z,69.50
2019-02-09T10:47:46.490Z,69.30
2019-02-09T10:50:13.081Z,69.00
2019-02-09T10:52:39.666Z,67.80
2019-02-09T10:55:06.398Z,67.20
2019-02-09T10:57:33.038Z,67.00
2019-02-09T11:00:00.181Z,66.70
2019-02-09T11:02:27.661Z,66.90
2019-02-09T11:04:54.364Z,66.10
2019-02-09T11:07:20.997Z,65.00
2019-02-09T11:09:47.580Z,65.50
2019-02-09T11:12:14.211Z,65.00
2019-02-09T11:14:40.797Z,64.70
2019-02-09T11:17:07.380Z,65.40
2019-02-09T11:19:34.016Z,64.80
2019-02-09T11:22:00.605Z,64.90
2019-02-09T11:24:27.236Z,64.80
2019-02-09T11:26:53.819Z,64.50
2019-02-09T11:29:20.408Z,64.60
2019-02-09T11:31:47.039Z,64.40
2019-02-09T11:34:13.624Z,64.00
2019-02-09T11:36:40.263Z,63.60
2019-02-09T11:39:06.848Z,62.70
2019-02-09T11:41:33.486Z,62.70
2019-02-09T11:44:00.219Z,62.10
2019-02-09T11:46:26.896Z,61.20
2019-02-09T11:48:53.482Z,61.70
2019-02-09T11:51:20.122Z,61.30
2019-02-09T11:53:46.704Z,60.00
2019-02-09T11:56:13.374Z,59.40
2019-02-09T11:58:39.966Z,59.60
2019-02-09T12:01:06.623Z,59.80
2019-02-09T12:03:33.213Z,58.70
2019-02-09T12:05:59.804Z,58.70
2019-02-09T12:08:26.450Z,59.20
2019-02-09T12:10:53.084Z,59.00
2019-02-09T12:13:19.801Z,58.70
2019-02-09T12:15:46.440Z,58.90
2019-02-09T12:18:13.069Z,58.80
2019-02-09T12:20:39.757Z,58.70
2019-02-09T12:23:06.395Z,58.80
2019-02-09T12:25:32.991Z,59.00
2019-02-09T12:27:59.634Z,59.30
2019-02-09T12:30:26.223Z,59.20
2019-02-09T12:32:52.814Z,58.60
2019-02-09T12:35:19.449Z,58.50
2019-02-09T12:37:46.031Z,59.00
2019-02-09T12:40:12.645Z,59.40
2019-02-09T12:42:39.234Z,58.80
2019-02-09T12:45:05.824Z,58.90
2019-02-09T12:47:32.463Z,59.00
2019-02-09T12:49:59.055Z,59.20
2019-02-09T12:52:25.706Z,59.60
2019-02-09T12:54:52.293Z,59.40
2019-02-09T12:57:18.881Z,60.00
2019-02-09T12:59:45.518Z,59.60
2019-02-09T13:02:12.166Z,59.50
2019-02-09T13:04:38.746Z,58.90
2019-02-09T13:07:05.338Z,58.50
2019-02-09T13:09:31.987Z,58.00
2019-02-09T13:11:58.573Z,56.70
2019-02-09T13:14:25.181Z,56.90
2019-02-09T13:16:51.815Z,56.80
2019-02-09T13:19:18.406Z,56.50
2019-02-09T13:21:45.041Z,56.40
2019-02-09T13:24:11.625Z,56.80
2019-02-09T13:26:38.269Z,56.40
2019-02-09T13:29:04.862Z,57.10
2019-02-09T13:31:31.491Z,57.10
2019-02-09T13:33:58.076Z,57.50
2019-02-09T13:36:24.713Z,58.10
2019-02-09T13:38:51.301Z,59.60
2019-02-09T13:41:17.942Z,62.10
2019-02-09T13:43:44.524Z,63.30
2019-02-09T13:46:11.155Z,63.40
2019-02-09T13:48:37.797Z,63.50
2019-02-09T13:51:04.381Z,63.30
2019-02-09T13:53:31.012Z,61.70
2019-02-09T13:55:57.593Z,61.90
2019-02-09T13:58:24.184Z,61.50
2019-02-09T14:00:50.820Z,62.00
2019-02-09T14:03:17.411Z,62.60
2019-02-09T14:05:44.041Z,62.70
2019-02-09T14:08:10.629Z,62.70
2019-02-09T14:10:37.271Z,62.70
2019-02-09T14:13:03.855Z,61.90
2019-02-09T14:15:30.499Z,62.10
2019-02-09T14:17:57.129Z,61.50
2019-02-09T14:20:23.797Z,60.50
2019-02-09T14:22:50.434Z,60.40
2019-02-09T14:25:17.070Z,58.60
2019-02-09T14:27:43.700Z,57.20
2019-02-09T14:30:10.285Z,56.90
2019-02-09T14:32:36.963Z,55.50
2019-02-09T14:35:03.979Z,54.90
2019-02-09T14:37:30.657Z,54.30
2019-02-09T14:39:57.427Z,54.30
2019-02-09T14:42:24.063Z,54.10
2019-02-09T14:44:51.822Z,54.30
2019-02-09T14:47:18.407Z,53.30
2019-02-09T14:49:45.036Z,52.70
2019-02-09T14:52:11.675Z,52.40
2019-02-09T14:54:38.262Z,52.30
2019-02-09T14:57:04.897Z,52.60
2019-02-09T14:59:31.485Z,53.20
2019-02-09T15:01:58.122Z,53.50
2019-02-09T15:04:24.755Z,53.60
2019-02-09T15:06:51.342Z,53.60
2019-02-09T15:09:17.982Z,52.80
2019-02-09T15:11:44.567Z,52.00
2019-02-09T15:14:11.206Z,53.00
2019-02-09T15:16:37.793Z,53.50
2019-02-09T15:19:04.443Z,51.70
2019-02-09T15:21:31.034Z,50.70
2019-02-09T15:23:57.679Z,51.00
2019-02-09T15:26:24.355Z,51.50
2019-02-09T15:28:50.946Z,52.40
2019-02-09T15:31:17.603Z,52.20
2019-02-09T15:33:44.302Z,52.60
2019-02-09T15:36:10.936Z,53.00
2019-02-09T15:38:37.584Z,53.40
2019-02-09T15:41:04.167Z,53.60
2019-02-09T15:43:30.757Z,53.40
2019-02-09T15:45:57.463Z,54.20
2019-02-09T15:48:24.097Z,53.70
2019-02-09T15:50:50.685Z,53.90
2019-02-09T15:53:17.320Z,53.70
2019-02-09T15:55:43.904Z,53.70
2019-02-09T15:58:10.545Z,54.10
2019-02-09T16:00:37.134Z,54.40
2019-02-09T16:03:04.764Z,54.80
2019-02-09T16:05:31.469Z,54.50
2019-02-09T16:07:58.105Z,54.60
2019-02-09T16:10:24.691Z,54.60
2019-02-09T16:12:51.320Z,55.00
2019-02-09T16:15:17.912Z,54.80
2019-02-09T16:17:44.492Z,54.90
2019-02-09T16:20:11.123Z,55.00
2019-02-09T16:22:37.710Z,55.10
2019-02-09T16:25:05.426Z,55.10
2019-02-09T16:27:32.136Z,55.60
2019-02-09T16:29:58.781Z,55.50
2019-02-09T16:32:25.366Z,55.70
2019-02-09T16:34:51.962Z,55.80
2019-02-09T16:37:18.597Z,56.00
2019-02-09T16:39:45.184Z,56.10
2019-02-09T16:42:11.817Z,56.60
2019-02-09T16:44:38.409Z,56.50
2019-02-09T16:47:05.041Z,57.00
2019-02-09T16:49:31.630Z,57.10
2019-02-09T16:51:58.212Z,56.80
2019-02-09T16:54:24.854Z,57.10
2019-02-09T16:56:51.436Z,57.10
2019-02-09T16:59:18.071Z,57.40
2019-02-09T17:01:44.656Z,57.70
2019-02-09T17:04:11.291Z,57.70
2019-02-09T17:06:37.877Z,57.80
2019-02-09T17:09:04.517Z,58.00
2019-02-09T17:11:31.098Z,58.00
2019-02-09T17:13:57.744Z,58.20
2019-02-09T17:16:24.333Z,58.20
2019-02-09T17:18:50.965Z,58.20
2019-02-09T17:21:17.553Z,58.40
2019-02-09T17:23:44.193Z,58.60
2019-02-09T17:26:10.774Z,58.70
2019-02-09T17:28:37.491Z,58.70
2019-02-09T17:31:04.076Z,58.80
2019-02-09T17:33:30.666Z,58.80
2019-02-09T17:35:57.303Z,58.70
2019-02-09T17:38:23.892Z,58.90
2019-02-09T17:40:50.529Z,58.40
2019-02-09T17:43:17.109Z,58.40
2019-02-09T17:45:43.744Z,58.30
2019-02-09T17:48:10.381Z,58.30
2019-02-09T17:50:36.968Z,58.00
2019-02-09T17:53:03.602Z,58.00
2019-02-09T17:55:30.238Z,57.60
2019-02-09T17:57:56.865Z,57.90
2019-02-09T18:00:23.495Z,57.70
2019-02-09T18:02:50.132Z,57.60
2019-02-09T18:05:16.713Z,57.70
2019-02-09T18:07:43.350Z,57.90
2019-02-09T18:10:09.985Z,58.40
2019-02-09T18:12:36.670Z,58.20
2019-02-09T18:15:03.411Z,58.10
2019-02-09T18:17:29.995Z,57.80
2019-02-09T18:19:56.627Z,57.70
2019-02-09T18:22:23.261Z,57.60
2019-02-09T18:24:49.962Z,57.30
2019-02-09T18:27:16.547Z,57.60
2019-02-09T18:29:43.179Z,57.60
2019-02-09T18:32:10.725Z,58.20
2019-02-09T18:34:37.359Z,58.70
2019-02-09T18:37:03.950Z,60.00
2019-02-09T18:39:30.540Z,60.70
2019-02-09T18:41:57.178Z,61.00
2019-02-09T18:44:23.765Z,61.50
2019-02-09T18:46:50.395Z,62.20
2019-02-09T18:49:16.974Z,62.70
2019-02-09T18:51:45.184Z,63.30
2019-02-09T18:54:11.976Z,63.80
2019-02-09T18:56:38.611Z,63.90
2019-02-09T18:59:05.249Z,64.00
2019-02-09T19:01:31.835Z,64.30
2019-02-09T19:03:58.477Z,64.10
2019-02-09T19:06:25.050Z,64.30
2019-02-09T19:08:51.683Z,64.40
2019-02-09T19:11:18.449Z,64.10
2019-02-09T19:13:45.037Z,64.00
2019-02-09T19:16:11.620Z,63.90
2019-02-09T19:18:38.255Z,63.60
2019-02-09T19:21:04.883Z,63.60
2019-02-09T19:23:31.534Z,63.50
2019-02-09T19:25:58.118Z,63.60
2019-02-09T19:28:24.699Z,63.50
2019-02-09T19:30:51.341Z,63.20
2019-02-09T19:33:17.924Z,63.00
2019-02-09T19:35:44.560Z,63.10
2019-02-09T19:38:11.186Z,63.10
2019-02-09T19:40:37.767Z,63.00
2019-02-09T19:43:04.399Z,63.00
2019-02-09T19:45:30.981Z,63.40
2019-02-09T19:47:57.695Z,63.90
2019-02-09T19:50:24.326Z,64.20
2019-02-09T19:52:51.091Z,64.10
2019-02-09T19:55:17.679Z,63.50
2019-02-09T19:57:44.314Z,64.10
2019-02-09T20:00:10.901Z,63.80
2019-02-09T20:02:37.483Z,63.50
2019-02-09T20:05:04.114Z,64.00
2019-02-09T20:07:31.004Z,64.50
2019-02-09T20:09:57.652Z,65.40
2019-02-09T20:12:24.237Z,66.10
2019-02-09T20:14:50.819Z,66.70
2019-02-09T20:17:17.456Z,67.20
2019-02-09T20:19:44.088Z,67.60
2019-02-09T20:22:10.676Z,68.30
2019-02-09T20:24:37.499Z,68.50
2019-02-09T20:27:04.123Z,68.80
2019-02-09T20:29:30.708Z,69.00
2019-02-09T20:31:57.348Z,69.30
2019-02-09T20:34:23.977Z,69.60
2019-02-09T20:36:50.609Z,69.70
2019-02-09T20:39:17.194Z,69.90
2019-02-09T20:41:43.822Z,70.60
2019-02-09T20:44:10.407Z,70.20
2019-02-09T20:46:36.994Z,70.50
2019-02-09T20:49:03.625Z,70.60
2019-02-09T20:51:30.262Z,70.90
2019-02-09T20:53:56.906Z,71.20
2019-02-09T20:56:23.488Z,71.50
2019-02-09T20:58:50.121Z,71.60
2019-02-09T21:01:16.762Z,71.90
2019-02-09T21:03:43.348Z,71.80
2019-02-09T21:06:09.985Z,72.00
2019-02-09T21:08:36.575Z,72.30
2019-02-09T21:11:03.203Z,72.60
2019-02-09T21:13:29.851Z,72.80
2019-02-09T21:15:56.500Z,72.60
2019-02-09T21:18:23.080Z,72.40
2019-02-09T21:20:49.661Z,72.40
2019-02-09T21:23:16.300Z,73.30
2019-02-09T21:25:42.893Z,73.10
2019-02-09T21:28:09.523Z,73.80
2019-02-09T21:30:36.109Z,74.10
2019-02-09T21:33:02.738Z,74.50
2019-02-09T21:35:30.509Z,74.60
2019-02-09T21:37:57.352Z,74.60
2019-02-09T21:40:23.939Z,74.80
2019-02-09T21:42:50.523Z,74.60
2019-02-09T21:45:17.156Z,74.60
2019-02-09T21:47:43.740Z,74.60
2019-02-09T21:50:10.372Z,74.60
2019-02-09T21:52:36.956Z,74.20
2019-02-09T21:55:03.590Z,74.20
2019-02-09T21:57:30.175Z,74.30
2019-02-09T21:59:56.809Z,74.20
2019-02-09T22:02:23.397Z,74.10
2019-02-09T22:04:50.028Z,73.70
2019-02-09T22:07:16.663Z,74.00
2019-02-09T22:09:43.249Z,74.10
2019-02-09T22:12:10.075Z,74.20
2019-02-09T22:14:36.756Z,74.40
2019-02-09T22:17:03.455Z,74.80
2019-02-09T22:19:30.044Z,74.70
2019-02-09T22:21:56.935Z,74.80
2019-02-09T22:24:23.742Z,74.80
2019-02-09T22:26:50.386Z,75.00
2019-02-09T22:29:17.038Z,75.00
2019-02-09T22:31:43.618Z,74.90
2019-02-09T22:34:10.348Z,74.90
2019-02-09T22:36:37.511Z,74.80
2019-02-09T22:39:04.241Z,74.70
2019-02-09T22:41:30.820Z,75.20
2019-02-09T22:43:57.407Z,74.30
2019-02-09T22:46:24.042Z,74.10
2019-02-09T22:48:50.629Z,73.90
2019-02-09T22:51:17.276Z,73.50
2019-02-09T22:53:43.859Z,73.40
2019-02-09T22:56:10.448Z,73.10
2019-02-09T22:58:37.083Z,73.00
2019-02-09T23:01:03.672Z,73.00
2019-02-09T23:03:30.306Z,73.10
2019-02-09T23:05:56.940Z,72.90
2019-02-09T23:08:23.522Z,72.90
2019-02-09T23:10:50.153Z,72.80
2019-02-09T23:13:16.736Z,72.50
2019-02-09T23:15:43.327Z,72.40
2019-02-09T23:18:10.021Z,72.30
2019-02-09T23:20:36.608Z,72.40
2019-02-09T23:23:03.298Z,72.40
2019-02-09T23:25:29.879Z,72.70
2019-02-09T23:27:56.503Z,73.00
2019-02-09T23:30:23.111Z,73.00
2019-02-09T23:32:49.759Z,73.60
2019-02-09T23:35:16.344Z,74.00
2019-02-09T23:37:42.933Z,74.20
2019-02-09T23:40:09.576Z,74.40
2019-02-09T23:42:36.162Z,74.80
2019-02-09T23:45:02.747Z,75.10
2019-02-09T23:47:29.388Z,75.10
2019-02-09T23:49:55.986Z,75.20
2019-02-09T23:52:22.602Z,75.30
2019-02-09T23:54:49.233Z,75.10
2019-02-09T23:57:15.863Z,74.90
2019-02-09T23:59:42.449Z,75.00
